In Rescue
 
Open Full Screen Window  High Contrast Mode
Wind Gusting 21 knots
14
May 20, 2019 3:18 PM EDT
Weather Information
Wind Direction
  270 °
Wind Speed
  14 kt (16 mph)
Wind Gust
  21 kt (24 mph)
Altimeter
29.65 in
Visibility
10 SM
Temperature
23° C
73° F
Dewpoint
13° C
55° F
Humidity
53%
Sky Condition
Broken @ 7,500 ft
Broken @ 5,500 ft
Broken @ 4,900 ft
VFR

METAR KCDA 201918Z AUTO 27014G21KT 10SM BKN049 BKN055 BKN075 23/13 A2965 RMK AO2 T02260133

FAA Disclaimer: The data displayed is for advisory purposes only and is not to be used for flight planning or operations.